Time;durP1;ratioP1;P1;durP2;ratioP2;P2;SDS_P1;SDS_P2;PMS_P1;PMS_P2;Temp;Humidity;BMP_temperature;BMP_pressure;BME280_temperature;BME280_humidity;BME280_pressure;Samples;Min_cycle;Max_cycle;Signal;HPM_P1;HPM_P2
2022/06/04 00:00:50;;;;;;;;;;;20.60;43.20;;;;;;4926801;29;19927;-55
2022/06/04 00:03:16;;;;;;;;;;;20.60;43.20;;;;;;4928705;28;19927;-55
2022/06/04 00:05:44;;;;;;;;;;;20.60;43.20;;;;;;4931601;28;19923;-52
2022/06/04 00:08:11;;;;;;;;;;;20.60;43.20;;;;;;4931217;28;20010;-56
2022/06/04 00:16:08;;;;;;;;;;;20.50;43.20;;;;;;4932097;29;19923;-56
2022/06/04 00:18:35;;;;;;;;;;;20.50;43.20;;;;;;4946030;28;19929;-52
2022/06/04 00:21:02;;;;;;;;;;;20.50;43.20;;;;;;4945850;28;19929;-53
2022/06/04 00:23:28;;;;;;;;;;;20.50;43.20;;;;;;4955298;28;19941;-53
2022/06/04 00:25:57;;;;;;;;;;;20.50;43.20;;;;;;4934838;29;19926;-52
2022/06/04 00:28:24;;;;;;;;;;;20.50;43.20;;;;;;4928769;28;20002;-55
2022/06/04 00:30:51;;;;;;;;;;;20.50;43.20;;;;;;4931609;29;20283;-52
2022/06/04 00:33:18;;;;;;;;;;;20.50;43.20;;;;;;4932313;29;19923;-56
2022/06/04 00:35:45;;;;;;;;;;;20.50;43.30;;;;;;4933900;29;19930;-57
2022/06/04 00:38:12;;;;;;;;;;;20.50;43.30;;;;;;4947354;28;20376;-51
2022/06/04 00:40:40;;;;;;;;;;;20.50;43.30;;;;;;4938856;28;19927;-56
2022/06/04 00:43:08;;;;;;;;;;;20.50;43.40;;;;;;4947780;28;19934;-53
2022/06/04 00:45:56;;;;;;;;;;;20.50;43.40;;;;;;4932557;28;19935;-57
2022/06/04 00:48:23;;;;;;;;;;;20.50;43.50;;;;;;4930233;29;20335;-53
2022/06/04 00:50:50;;;;;;;;;;;20.50;43.50;;;;;;4946117;28;19927;-52
2022/06/04 00:53:17;;;;;;;;;;;20.40;43.50;;;;;;4951129;22;19934;-68
2022/06/04 00:55:45;;;;;;;;;;;20.40;43.50;;;;;;5007055;28;20295;-68
2022/06/04 00:58:30;;;;;;;;;;;20.40;43.60;;;;;;4977362;28;19926;-68
2022/06/04 01:00:57;;;;;;;;;;;20.40;43.70;;;;;;5015086;28;19928;-68
2022/06/04 01:03:26;;;;;;;;;;;20.40;43.70;;;;;;5057358;28;20295;-68
2022/06/04 01:06:02;;;;;;;;;;;20.40;43.70;;;;;;5008880;28;19978;-68
2022/06/04 01:08:52;;;;;;;;;;;20.40;43.80;;;;;;5003379;28;19995;-68
2022/06/04 01:11:20;;;;;;;;;;;20.40;43.80;;;;;;5008337;28;20368;-68
2022/06/04 01:13:54;;;;;;;;;;;20.40;43.80;;;;;;5017168;28;20350;-68
2022/06/04 01:16:22;;;;;;;;;;;20.30;43.80;;;;;;4974374;28;19926;-69
2022/06/04 01:18:52;;;;;;;;;;;20.30;43.80;;;;;;5021239;28;20402;-69
2022/06/04 01:21:20;;;;;;;;;;;20.30;43.80;;;;;;5024054;28;19927;-68
2022/06/04 01:24:02;;;;;;;;;;;20.30;43.90;;;;;;4994059;28;19930;-68
2022/06/04 01:26:39;;;;;;;;;;;20.30;43.90;;;;;;4970504;28;19926;-68
2022/06/04 01:29:06;;;;;;;;;;;20.30;43.90;;;;;;5006758;28;20008;-68
2022/06/04 01:31:35;;;;;;;;;;;20.30;44.00;;;;;;4983702;28;20353;-68
2022/06/04 01:34:02;;;;;;;;;;;20.30;44.10;;;;;;4972519;28;19924;-68
2022/06/04 01:36:32;;;;;;;;;;;20.30;44.10;;;;;;4983087;28;19993;-68
2022/06/04 01:39:00;;;;;;;;;;;20.30;44.10;;;;;;5041405;28;19980;-68
2022/06/04 01:41:26;;;;;;;;;;;20.30;44.10;;;;;;4992756;28;19930;-68
2022/06/04 01:43:55;;;;;;;;;;;20.30;44.20;;;;;;5013874;28;20044;-68
2022/06/04 01:46:22;;;;;;;;;;;20.30;44.10;;;;;;4984596;28;19926;-68
2022/06/04 01:48:50;;;;;;;;;;;20.30;44.20;;;;;;5015151;28;19924;-68
2022/06/04 01:51:18;;;;;;;;;;;20.30;44.20;;;;;;5018474;28;19940;-69
2022/06/04 01:53:44;;;;;;;;;;;20.30;44.20;;;;;;5014459;28;19925;-68
2022/06/04 01:56:12;;;;;;;;;;;20.30;44.20;;;;;;4990729;28;19927;-68
2022/06/04 01:58:41;;;;;;;;;;;20.30;44.20;;;;;;4971704;28;19935;-68
2022/06/04 02:01:09;;;;;;;;;;;20.30;44.20;;;;;;5000356;28;19975;-68
2022/06/04 02:03:38;;;;;;;;;;;20.30;44.10;;;;;;5039309;28;20344;-68
2022/06/04 02:06:06;;;;;;;;;;;20.30;44.10;;;;;;5008394;28;19930;-69
2022/06/04 02:08:34;;;;;;;;;;;20.30;44.10;;;;;;5047370;28;19932;-69
2022/06/04 02:11:01;;;;;;;;;;;20.30;44.10;;;;;;4998528;28;20426;-69
2022/06/04 02:13:28;;;;;;;;;;;20.30;44.10;;;;;;4998396;28;19930;-69
2022/06/04 02:15:55;;;;;;;;;;;20.30;44.00;;;;;;4999238;28;19924;-69
2022/06/04 02:18:24;;;;;;;;;;;20.30;44.00;;;;;;5004661;28;19926;-69
2022/06/04 02:20:51;;;;;;;;;;;20.30;44.00;;;;;;5027844;28;19959;-69
2022/06/04 02:23:18;;;;;;;;;;;20.30;44.00;;;;;;4972117;28;19937;-69
2022/06/04 02:25:44;;;;;;;;;;;20.30;44.00;;;;;;4989605;28;19962;-69
2022/06/04 02:28:11;;;;;;;;;;;20.30;44.10;;;;;;4970841;28;19935;-69
2022/06/04 02:30:41;;;;;;;;;;;20.30;44.20;;;;;;5033092;28;19928;-69
2022/06/04 02:33:08;;;;;;;;;;;20.30;44.20;;;;;;4988700;28;19929;-69
2022/06/04 02:35:39;;;;;;;;;;;20.30;44.20;;;;;;5009074;28;20373;-69
2022/06/04 02:38:07;;;;;;;;;;;20.30;44.10;;;;;;4979848;28;19927;-69
2022/06/04 02:40:34;;;;;;;;;;;20.30;44.10;;;;;;4982931;28;19930;-69
2022/06/04 02:43:02;;;;;;;;;;;20.30;44.30;;;;;;4998713;28;19926;-69
2022/06/04 02:45:31;;;;;;;;;;;20.30;44.30;;;;;;4979475;28;20391;-69
2022/06/04 02:47:59;;;;;;;;;;;20.30;44.40;;;;;;4954862;28;19930;-69
2022/06/04 02:50:26;;;;;;;;;;;20.30;44.50;;;;;;4972239;28;19933;-69
2022/06/04 02:52:55;;;;;;;;;;;20.30;44.50;;;;;;5023741;28;19930;-69
2022/06/04 02:55:23;;;;;;;;;;;20.30;44.50;;;;;;4972358;28;19934;-69
2022/06/04 02:57:50;;;;;;;;;;;20.30;44.50;;;;;;5052124;28;19924;-69
2022/06/04 03:00:18;;;;;;;;;;;20.20;44.60;;;;;;5014198;28;19936;-69
2022/06/04 03:02:45;;;;;;;;;;;20.20;44.60;;;;;;5001609;28;19988;-69
2022/06/04 03:05:14;;;;;;;;;;;20.20;44.70;;;;;;5027594;28;19931;-69
2022/06/04 03:07:41;;;;;;;;;;;20.20;44.60;;;;;;4992657;28;19927;-69
2022/06/04 03:10:10;;;;;;;;;;;20.20;44.70;;;;;;4990140;28;19938;-69
2022/06/04 03:12:37;;;;;;;;;;;20.20;44.70;;;;;;4983008;28;20405;-69
2022/06/04 03:15:04;;;;;;;;;;;20.20;44.70;;;;;;5001626;28;19933;-69
2022/06/04 03:17:31;;;;;;;;;;;20.20;44.70;;;;;;5050285;28;19925;-69
2022/06/04 03:19:58;;;;;;;;;;;20.20;44.70;;;;;;5016183;28;20017;-69
2022/06/04 03:22:25;;;;;;;;;;;20.20;44.70;;;;;;5012772;28;19924;-69
2022/06/04 03:24:52;;;;;;;;;;;20.20;44.80;;;;;;5010547;28;20421;-69
2022/06/04 03:27:20;;;;;;;;;;;20.20;44.70;;;;;;5053951;28;19962;-69
2022/06/04 03:29:47;;;;;;;;;;;20.20;44.70;;;;;;5016457;28;19926;-69
2022/06/04 03:32:13;;;;;;;;;;;20.20;44.60;;;;;;4994770;28;19955;-69
2022/06/04 03:34:40;;;;;;;;;;;20.20;44.70;;;;;;5064039;28;19977;-69
2022/06/04 03:37:07;;;;;;;;;;;20.20;44.70;;;;;;5001722;28;19930;-69
2022/06/04 03:39:34;;;;;;;;;;;20.20;44.70;;;;;;5041889;28;19930;-69
2022/06/04 03:42:01;;;;;;;;;;;20.20;44.70;;;;;;5039413;28;19926;-69
2022/06/04 03:44:29;;;;;;;;;;;20.20;44.70;;;;;;4995681;28;20396;-69
2022/06/04 03:46:56;;;;;;;;;;;20.20;44.80;;;;;;4982601;28;19980;-69
2022/06/04 03:49:23;;;;;;;;;;;20.20;44.90;;;;;;5026356;28;19930;-69
2022/06/04 03:51:50;;;;;;;;;;;20.20;45.00;;;;;;4994948;28;20410;-69
2022/06/04 03:54:16;;;;;;;;;;;20.20;45.00;;;;;;5031810;28;19988;-69
2022/06/04 03:57:37;;;;;;;;;;;20.20;45.10;;;;;;4994703;28;19933;-69
2022/06/04 03:59:31;;;;;;;;;;;20.20;45.20;;;;;;5006708;28;20371;-69
2022/06/04 04:01:58;;;;;;;;;;;20.20;45.10;;;;;;4981229;28;20266;-70
2022/06/04 04:04:25;;;;;;;;;;;20.10;45.00;;;;;;5010460;28;19928;-69
2022/06/04 04:06:51;;;;;;;;;;;20.10;45.00;;;;;;4981757;28;20294;-69
2022/06/04 04:09:18;;;;;;;;;;;20.20;45.00;;;;;;5014296;28;19974;-69
2022/06/04 04:11:45;;;;;;;;;;;20.20;45.00;;;;;;4999480;28;19930;-69
2022/06/04 04:14:12;;;;;;;;;;;20.20;44.90;;;;;;4997106;28;19960;-69
2022/06/04 04:16:40;;;;;;;;;;;20.20;44.90;;;;;;5017739;28;19934;-69
2022/06/04 04:19:07;;;;;;;;;;;20.20;44.80;;;;;;5001917;28;20326;-69
2022/06/04 04:21:39;;;;;;;;;;;20.20;44.80;;;;;;5011068;28;19938;-69
2022/06/04 04:24:06;;;;;;;;;;;20.20;44.70;;;;;;5002382;28;19960;-69
2022/06/04 04:26:32;;;;;;;;;;;20.20;44.70;;;;;;5003977;28;19933;-70
2022/06/04 04:28:59;;;;;;;;;;;20.10;44.70;;;;;;5014749;28;19934;-69
2022/06/04 04:31:27;;;;;;;;;;;20.20;44.80;;;;;;5019396;28;19932;-69
2022/06/04 04:33:55;;;;;;;;;;;20.20;44.90;;;;;;4995626;28;19926;-68
2022/06/04 04:36:22;;;;;;;;;;;20.20;44.90;;;;;;5022132;28;19942;-69
2022/06/04 04:38:49;;;;;;;;;;;20.20;44.90;;;;;;4993926;28;19947;-68
2022/06/04 04:41:16;;;;;;;;;;;20.20;45.50;;;;;;5019937;28;19924;-69
2022/06/04 04:43:43;;;;;;;;;;;20.20;45.20;;;;;;5009219;28;20288;-69
2022/06/04 04:46:10;;;;;;;;;;;20.20;45.30;;;;;;5031601;28;19932;-69
2022/06/04 04:48:37;;;;;;;;;;;20.20;45.40;;;;;;5023798;28;19934;-69
2022/06/04 04:51:05;;;;;;;;;;;20.20;45.40;;;;;;4993949;28;19927;-69
2022/06/04 04:53:32;;;;;;;;;;;20.20;45.50;;;;;;5028863;28;20267;-69
2022/06/04 04:55:59;;;;;;;;;;;20.10;45.50;;;;;;4996338;28;19967;-69
2022/06/04 04:58:26;;;;;;;;;;;20.10;45.60;;;;;;4968853;28;19932;-68
2022/06/04 05:00:52;;;;;;;;;;;20.10;45.70;;;;;;5026446;28;19948;-69
2022/06/04 05:03:19;;;;;;;;;;;20.10;45.70;;;;;;5012092;28;19930;-68
2022/06/04 05:05:46;;;;;;;;;;;20.00;45.80;;;;;;5005538;28;19964;-69
2022/06/04 05:08:14;;;;;;;;;;;20.00;45.80;;;;;;5025830;28;19924;-69
2022/06/04 05:10:43;;;;;;;;;;;20.00;45.80;;;;;;5011022;28;19937;-68
2022/06/04 05:13:10;;;;;;;;;;;20.00;45.80;;;;;;4995663;28;20025;-69
2022/06/04 05:15:37;;;;;;;;;;;20.00;45.90;;;;;;5008688;28;20447;-68
2022/06/04 05:18:04;;;;;;;;;;;20.00;45.80;;;;;;5010897;28;20379;-68
2022/06/04 05:20:30;;;;;;;;;;;20.00;45.90;;;;;;5031028;28;19932;-69
2022/06/04 05:22:57;;;;;;;;;;;20.00;45.90;;;;;;5016353;28;19979;-69
2022/06/04 05:25:25;;;;;;;;;;;20.00;45.90;;;;;;5015181;28;19928;-69
2022/06/04 05:27:52;;;;;;;;;;;20.00;46.00;;;;;;5026605;28;19927;-68
2022/06/04 05:30:19;;;;;;;;;;;20.00;46.00;;;;;;4964801;28;19930;-69
2022/06/04 05:32:46;;;;;;;;;;;19.90;46.00;;;;;;5010359;28;20590;-69
2022/06/04 05:35:13;;;;;;;;;;;19.90;46.00;;;;;;5017797;28;19925;-69
2022/06/04 05:37:39;;;;;;;;;;;19.90;46.00;;;;;;4998551;28;20359;-69
2022/06/04 05:40:07;;;;;;;;;;;19.90;46.00;;;;;;4994634;28;19922;-69
2022/06/04 05:42:35;;;;;;;;;;;19.90;46.00;;;;;;5013338;28;19924;-69
2022/06/04 05:45:02;;;;;;;;;;;19.90;46.10;;;;;;5010383;28;19928;-69
2022/06/04 05:47:29;;;;;;;;;;;19.90;46.20;;;;;;5014058;28;19931;-68
2022/06/04 05:49:55;;;;;;;;;;;19.90;46.20;;;;;;5011951;28;19932;-68
2022/06/04 05:52:23;;;;;;;;;;;19.90;46.10;;;;;;5025410;28;19931;-68
2022/06/04 05:54:49;;;;;;;;;;;19.80;46.10;;;;;;4996214;28;20387;-68
2022/06/04 05:57:19;;;;;;;;;;;19.80;46.00;;;;;;5009027;28;19931;-68
2022/06/04 05:59:47;;;;;;;;;;;19.80;46.10;;;;;;5016486;28;20040;-68
2022/06/04 06:02:14;;;;;;;;;;;19.80;46.10;;;;;;5027091;28;19930;-67
2022/06/04 06:04:41;;;;;;;;;;;19.80;46.10;;;;;;5005418;28;19924;-68
2022/06/04 06:07:07;;;;;;;;;;;19.80;46.10;;;;;;4995496;28;20371;-68
2022/06/04 06:09:34;;;;;;;;;;;19.80;46.10;;;;;;4981872;28;19950;-69
2022/06/04 06:12:01;;;;;;;;;;;19.80;46.10;;;;;;4983792;28;20026;-69
2022/06/04 06:14:28;;;;;;;;;;;19.80;46.10;;;;;;5003409;28;19926;-69
2022/06/04 06:16:57;;;;;;;;;;;19.80;46.10;;;;;;5029368;28;19933;-69
2022/06/04 06:19:23;;;;;;;;;;;19.80;46.10;;;;;;5009139;28;19948;-69
2022/06/04 06:21:50;;;;;;;;;;;19.80;46.10;;;;;;4996596;28;19929;-69
2022/06/04 06:24:17;;;;;;;;;;;19.80;46.10;;;;;;4997269;28;19930;-69
2022/06/04 06:26:44;;;;;;;;;;;19.80;46.20;;;;;;5006709;28;19969;-69
2022/06/04 06:29:11;;;;;;;;;;;19.80;46.20;;;;;;5014442;28;19941;-69
2022/06/04 06:31:38;;;;;;;;;;;19.80;46.20;;;;;;5005023;28;19930;-68
2022/06/04 06:34:06;;;;;;;;;;;19.80;46.20;;;;;;5022999;28;19984;-68
2022/06/04 06:36:33;;;;;;;;;;;19.80;46.20;;;;;;5019227;28;20294;-68
2022/06/04 06:39:00;;;;;;;;;;;19.80;46.10;;;;;;4986085;28;20402;-68
2022/06/04 06:41:26;;;;;;;;;;;19.80;46.10;;;;;;5020815;28;19932;-69
2022/06/04 06:43:54;;;;;;;;;;;19.80;46.10;;;;;;5024770;28;19935;-69
2022/06/04 06:46:21;;;;;;;;;;;19.80;46.00;;;;;;4996427;28;19924;-69
2022/06/04 06:48:48;;;;;;;;;;;19.80;46.00;;;;;;5009896;28;19943;-69
2022/06/04 06:51:17;;;;;;;;;;;19.80;46.10;;;;;;4988338;28;19933;-69
2022/06/04 06:53:44;;;;;;;;;;;19.80;46.10;;;;;;5033519;28;19970;-70
2022/06/04 06:56:12;;;;;;;;;;;19.80;46.10;;;;;;5024916;28;19925;-70
2022/06/04 06:58:38;;;;;;;;;;;19.80;46.10;;;;;;5023355;28;19926;-70
2022/06/04 07:01:05;;;;;;;;;;;19.80;46.10;;;;;;4981927;28;19924;-69
2022/06/04 07:03:32;;;;;;;;;;;19.90;46.10;;;;;;5012569;28;20437;-69
2022/06/04 07:05:59;;;;;;;;;;;19.90;46.00;;;;;;5004784;28;19926;-69
2022/06/04 07:08:27;;;;;;;;;;;19.90;45.90;;;;;;4989759;28;19954;-69
2022/06/04 07:10:54;;;;;;;;;;;19.90;45.90;;;;;;4968851;28;19926;-69
2022/06/04 07:13:21;;;;;;;;;;;19.90;45.90;;;;;;4971255;28;19926;-69
2022/06/04 07:15:49;;;;;;;;;;;19.90;45.90;;;;;;4970125;28;19937;-69
2022/06/04 07:18:15;;;;;;;;;;;19.90;46.00;;;;;;5043655;28;19933;-69
2022/06/04 07:20:43;;;;;;;;;;;19.90;46.10;;;;;;4969169;28;20017;-69
2022/06/04 07:23:10;;;;;;;;;;;19.90;46.20;;;;;;4991604;28;20398;-70
2022/06/04 07:25:40;;;;;;;;;;;19.90;46.20;;;;;;4958534;28;19927;-69
2022/06/04 07:28:07;;;;;;;;;;;19.90;46.20;;;;;;4969626;28;20374;-69
2022/06/04 07:30:34;;;;;;;;;;;19.90;46.20;;;;;;4966630;28;20450;-69
2022/06/04 07:33:00;;;;;;;;;;;19.90;46.20;;;;;;4965287;28;20422;-69
2022/06/04 07:35:28;;;;;;;;;;;19.90;46.20;;;;;;4985926;28;19932;-69
2022/06/04 07:37:54;;;;;;;;;;;19.90;46.20;;;;;;4989143;28;20456;-69
2022/06/04 07:40:21;;;;;;;;;;;19.90;46.20;;;;;;4982567;28;20322;-69
2022/06/04 07:42:50;;;;;;;;;;;19.90;46.20;;;;;;4985267;28;19927;-69
2022/06/04 07:45:16;;;;;;;;;;;19.90;46.30;;;;;;5000440;28;20557;-69
2022/06/04 07:47:44;;;;;;;;;;;19.90;46.30;;;;;;4965924;28;19930;-67
2022/06/04 07:50:11;;;;;;;;;;;19.90;46.30;;;;;;4965663;28;19930;-69
2022/06/04 07:52:38;;;;;;;;;;;19.90;46.30;;;;;;4981669;28;20402;-69
2022/06/04 07:55:06;;;;;;;;;;;19.90;46.30;;;;;;4990822;28;19952;-69
2022/06/04 07:57:33;;;;;;;;;;;19.90;46.30;;;;;;5023825;28;20389;-69
2022/06/04 08:00:01;;;;;;;;;;;19.90;46.40;;;;;;4988459;28;19957;-69
2022/06/04 08:02:28;;;;;;;;;;;19.90;46.40;;;;;;4993444;28;20422;-69
2022/06/04 08:04:55;;;;;;;;;;;19.90;46.50;;;;;;5008658;28;19924;-68
2022/06/04 08:07:22;;;;;;;;;;;19.90;46.60;;;;;;4974911;28;19930;-67
2022/06/04 08:09:49;;;;;;;;;;;19.90;46.50;;;;;;5016780;28;19928;-67
2022/06/04 08:12:16;;;;;;;;;;;19.90;46.50;;;;;;4981849;28;19926;-70
2022/06/04 08:14:43;;;;;;;;;;;19.80;46.50;;;;;;4975772;28;20018;-66
2022/06/04 08:17:11;;;;;;;;;;;19.90;46.60;;;;;;4979632;28;19926;-67
2022/06/04 08:19:38;;;;;;;;;;;19.80;46.70;;;;;;4965461;28;19926;-67
2022/06/04 08:22:05;;;;;;;;;;;19.80;46.70;;;;;;4951576;28;19934;-67
2022/06/04 08:24:31;;;;;;;;;;;19.80;46.70;;;;;;4974423;28;20083;-67
2022/06/04 08:26:59;;;;;;;;;;;19.80;46.70;;;;;;4981456;28;19926;-66
2022/06/04 08:29:26;;;;;;;;;;;19.80;46.70;;;;;;4983487;28;19926;-67
2022/06/04 08:31:53;;;;;;;;;;;19.80;46.70;;;;;;4959799;28;19927;-67
2022/06/04 08:34:21;;;;;;;;;;;19.80;46.60;;;;;;4994659;28;19930;-66
2022/06/04 08:36:48;;;;;;;;;;;19.80;46.60;;;;;;4983464;28;20537;-67
2022/06/04 08:39:15;;;;;;;;;;;19.80;46.60;;;;;;4958943;28;20370;-66
2022/06/04 08:41:44;;;;;;;;;;;19.70;46.50;;;;;;4957779;28;19930;-67
2022/06/04 08:44:14;;;;;;;;;;;19.80;46.50;;;;;;4987545;28;20345;-67
2022/06/04 08:46:42;;;;;;;;;;;19.70;46.40;;;;;;5027686;28;19925;-67
2022/06/04 08:49:11;;;;;;;;;;;19.70;46.40;;;;;;5016411;28;19972;-67
2022/06/04 08:51:42;;;;;;;;;;;19.70;46.30;;;;;;5018479;28;20030;-67
2022/06/04 08:59:50;;;;;;;;;;;19.70;46.20;;;;;;4978536;28;20067;-67
2022/06/04 09:02:18;;;;;;;;;;;19.60;46.00;;;;;;4958112;28;19976;-67
2022/06/04 09:04:48;;;;;;;;;;;19.60;45.90;;;;;;4947816;28;19930;-67
2022/06/04 09:07:17;;;;;;;;;;;19.60;45.80;;;;;;5020009;28;19976;-67
2022/06/04 09:09:45;;;;;;;;;;;19.60;45.70;;;;;;5046871;28;20389;-67
2022/06/04 09:12:18;;;;;;;;;;;19.60;45.60;;;;;;4985153;28;19931;-67
2022/06/04 09:14:46;;;;;;;;;;;19.60;45.60;;;;;;4989391;28;19924;-67
2022/06/04 09:17:13;;;;;;;;;;;19.60;45.60;;;;;;4978130;28;19957;-67
2022/06/04 09:19:40;;;;;;;;;;;19.60;45.60;;;;;;5013006;28;20299;-67
2022/06/04 09:22:11;;;;;;;;;;;19.60;45.50;;;;;;4997413;28;19932;-67
2022/06/04 09:24:39;;;;;;;;;;;19.60;45.50;;;;;;5002389;28;19926;-67
2022/06/04 09:27:10;;;;;;;;;;;19.60;45.50;;;;;;5012122;28;20071;-67
2022/06/04 09:29:50;;;;;;;;;;;19.60;45.60;;;;;;4996693;28;20380;-67
2022/06/04 09:32:18;;;;;;;;;;;19.60;45.50;;;;;;4998724;28;19930;-67
2022/06/04 09:34:46;;;;;;;;;;;19.60;45.50;;;;;;5007842;28;19931;-67
2022/06/04 09:37:15;;;;;;;;;;;19.60;45.40;;;;;;4991736;28;19979;-67
2022/06/04 09:39:44;;;;;;;;;;;19.60;45.40;;;;;;4974290;28;19930;-67
2022/06/04 09:42:19;;;;;;;;;;;19.60;45.30;;;;;;5001342;28;19958;-67
2022/06/04 09:44:49;;;;;;;;;;;19.60;45.20;;;;;;4982398;28;19979;-67
2022/06/04 09:47:17;;;;;;;;;;;19.60;45.20;;;;;;5008208;28;19931;-67
2022/06/04 09:49:45;;;;;;;;;;;19.60;45.10;;;;;;4997192;28;19930;-67
2022/06/04 09:52:13;;;;;;;;;;;19.60;45.10;;;;;;5044449;28;19973;-68
2022/06/04 09:54:42;;;;;;;;;;;19.60;44.90;;;;;;5002278;28;19980;-67
2022/06/04 09:57:24;;;;;;;;;;;19.60;44.80;;;;;;5025777;28;19928;-67
2022/06/04 09:59:53;;;;;;;;;;;19.60;44.80;;;;;;5008256;28;19932;-67
2022/06/04 10:02:20;;;;;;;;;;;19.60;44.70;;;;;;4966664;28;19930;-67
2022/06/04 10:04:47;;;;;;;;;;;19.60;44.70;;;;;;4997258;28;20308;-68
2022/06/04 10:07:15;;;;;;;;;;;19.60;44.80;;;;;;4987665;28;20031;-68
2022/06/04 10:09:58;;;;;;;;;;;19.60;44.80;;;;;;5010348;28;19926;-67
2022/06/04 10:13:42;;;;;;;;;;;19.60;44.80;;;;;;5022215;28;19940;-68
2022/06/04 10:15:18;;;;;;;;;;;19.60;44.90;;;;;;4987700;28;19926;-68
2022/06/04 10:17:45;;;;;;;;;;;19.60;44.90;;;;;;4983464;28;20402;-66
2022/06/04 10:20:19;;;;;;;;;;;19.60;44.80;;;;;;4972009;28;20027;-67
2022/06/04 10:22:48;;;;;;;;;;;19.60;44.70;;;;;;4986207;28;19933;-67
2022/06/04 10:25:21;;;;;;;;;;;19.60;44.50;;;;;;4957992;28;19938;-67
2022/06/04 10:27:52;;;;;;;;;;;19.60;44.50;;;;;;4956866;28;19979;-67
2022/06/04 10:30:22;;;;;;;;;;;19.60;44.40;;;;;;4978251;28;19934;-67
2022/06/04 10:32:52;;;;;;;;;;;19.60;44.40;;;;;;4986398;28;20378;-71
2022/06/04 10:35:20;;;;;;;;;;;19.60;44.30;;;;;;4986687;28;19937;-67
2022/06/04 10:37:51;;;;;;;;;;;19.60;44.30;;;;;;4958342;28;19933;-67
2022/06/04 10:40:22;;;;;;;;;;;19.60;44.10;;;;;;4979224;28;19961;-66
2022/06/04 10:42:54;;;;;;;;;;;19.60;44.00;;;;;;4975860;28;19927;-67
2022/06/04 10:45:22;;;;;;;;;;;19.60;44.00;;;;;;4978803;28;20387;-67
2022/06/04 10:47:54;;;;;;;;;;;19.60;43.90;;;;;;5023498;28;19968;-67
2022/06/04 10:50:26;;;;;;;;;;;19.60;43.90;;;;;;5046203;28;19962;-67
2022/06/04 10:52:54;;;;;;;;;;;19.60;43.90;;;;;;5007292;28;19936;-67
2022/06/04 10:55:22;;;;;;;;;;;19.60;43.90;;;;;;5008218;28;20378;-66
2022/06/04 10:57:52;;;;;;;;;;;19.60;44.00;;;;;;4966931;28;20017;-67
2022/06/04 11:00:20;;;;;;;;;;;19.60;43.80;;;;;;4977539;28;19934;-66
2022/06/04 11:02:48;;;;;;;;;;;19.60;43.70;;;;;;4966736;28;19933;-67
2022/06/04 11:05:15;;;;;;;;;;;19.60;43.50;;;;;;5034362;28;20462;-67
2022/06/04 11:07:48;;;;;;;;;;;19.60;43.50;;;;;;4970656;28;20395;-67
2022/06/04 11:10:19;;;;;;;;;;;19.60;43.50;;;;;;4962970;28;20442;-67
2022/06/04 11:12:47;;;;;;;;;;;19.60;43.50;;;;;;4983698;28;20522;-67
2022/06/04 11:15:16;;;;;;;;;;;19.60;43.50;;;;;;4976215;28;19926;-67
2022/06/04 11:17:44;;;;;;;;;;;19.60;43.40;;;;;;4966411;28;19930;-67
2022/06/04 11:20:12;;;;;;;;;;;19.60;43.30;;;;;;5012834;28;19982;-67
2022/06/04 11:22:39;;;;;;;;;;;19.60;43.40;;;;;;4987549;28;19933;-67
2022/06/04 11:25:14;;;;;;;;;;;19.70;43.50;;;;;;5017237;28;19972;-67
2022/06/04 11:27:41;;;;;;;;;;;19.70;43.50;;;;;;5002148;28;19986;-66
2022/06/04 11:30:10;;;;;;;;;;;19.70;43.50;;;;;;5015766;28;19969;-67
2022/06/04 11:32:41;;;;;;;;;;;19.70;43.40;;;;;;5018331;28;19930;-67
2022/06/04 11:35:12;;;;;;;;;;;19.70;43.50;;;;;;4985274;28;19933;-67
2022/06/04 11:37:41;;;;;;;;;;;19.70;43.50;;;;;;4980759;28;19927;-67
2022/06/04 11:40:12;;;;;;;;;;;19.70;43.50;;;;;;4971376;28;19941;-66
2022/06/04 11:42:49;;;;;;;;;;;19.70;43.50;;;;;;4987444;28;19928;-67
2022/06/04 11:45:18;;;;;;;;;;;19.70;43.40;;;;;;4988542;28;19933;-67
2022/06/04 11:47:51;;;;;;;;;;;19.70;43.30;;;;;;5043725;28;20266;-67
2022/06/04 11:50:19;;;;;;;;;;;19.70;43.40;;;;;;5014727;28;19924;-67
2022/06/04 11:52:48;;;;;;;;;;;19.70;43.30;;;;;;4992951;28;19930;-67
2022/06/04 11:55:17;;;;;;;;;;;19.80;43.40;;;;;;5003286;28;19941;-67
2022/06/04 11:57:47;;;;;;;;;;;19.80;43.40;;;;;;5017873;28;19928;-67
2022/06/04 12:00:16;;;;;;;;;;;19.80;43.40;;;;;;5027997;28;19948;-67
2022/06/04 12:02:46;;;;;;;;;;;19.80;43.40;;;;;;5014882;28;19953;-66
2022/06/04 12:05:19;;;;;;;;;;;19.80;43.40;;;;;;5007762;28;20423;-67
2022/06/04 12:07:46;;;;;;;;;;;19.80;43.40;;;;;;4987782;28;20025;-67
2022/06/04 12:10:21;;;;;;;;;;;19.80;43.10;;;;;;5026246;28;19950;-67
2022/06/04 12:12:50;;;;;;;;;;;19.80;43.00;;;;;;5015941;28;19932;-67
2022/06/04 12:15:22;;;;;;;;;;;19.80;42.90;;;;;;4997801;28;20407;-67
2022/06/04 12:17:50;;;;;;;;;;;19.80;42.80;;;;;;5004707;28;19933;-67
2022/06/04 12:26:16;;;;;;;;;;;19.90;42.80;;;;;;4974477;28;20474;-67
2022/06/04 12:28:43;;;;;;;;;;;19.90;42.60;;;;;;4976769;28;20425;-67
2022/06/04 12:31:10;;;;;;;;;;;19.90;42.70;;;;;;4983990;28;19937;-67
2022/06/04 12:33:37;;;;;;;;;;;19.90;42.80;;;;;;4966660;28;19927;-67
2022/06/04 12:36:06;;;;;;;;;;;19.90;42.60;;;;;;4969337;28;19933;-67
2022/06/04 12:38:33;;;;;;;;;;;19.90;42.60;;;;;;4968428;28;19940;-67
2022/06/04 12:41:07;;;;;;;;;;;19.90;42.60;;;;;;5004311;28;19930;-67
2022/06/04 12:43:35;;;;;;;;;;;19.90;42.60;;;;;;4980995;28;20625;-66
2022/06/04 12:46:06;;;;;;;;;;;19.90;42.40;;;;;;5010923;28;20319;-66
2022/06/04 12:48:36;;;;;;;;;;;19.90;42.40;;;;;;4967522;28;19952;-66
2022/06/04 12:51:04;;;;;;;;;;;19.90;42.40;;;;;;4958176;28;20391;-66
2022/06/04 12:53:33;;;;;;;;;;;19.90;42.50;;;;;;5001784;28;19926;-66
2022/06/04 12:56:00;;;;;;;;;;;19.90;42.60;;;;;;4962083;28;19932;-66
2022/06/04 12:58:30;;;;;;;;;;;19.90;42.60;;;;;;4956016;28;20006;-67
2022/06/04 13:00:56;;;;;;;;;;;19.90;42.60;;;;;;5014305;28;20024;-66
2022/06/04 13:03:27;;;;;;;;;;;19.90;42.40;;;;;;4977981;28;19934;-66
2022/06/04 13:05:58;;;;;;;;;;;19.90;42.50;;;;;;5049027;28;20343;-66
2022/06/04 13:08:29;;;;;;;;;;;19.90;42.50;;;;;;4959608;28;19930;-66
2022/06/04 13:10:58;;;;;;;;;;;20.00;42.40;;;;;;4958862;28;20418;-66
2022/06/04 13:13:26;;;;;;;;;;;20.00;42.50;;;;;;4975368;28;20041;-66
2022/06/04 13:15:53;;;;;;;;;;;20.00;42.10;;;;;;4974816;28;20285;-66
2022/06/04 13:18:21;;;;;;;;;;;20.00;42.10;;;;;;4969775;28;19935;-66
2022/06/04 13:20:48;;;;;;;;;;;20.00;42.20;;;;;;5027590;28;20470;-66
2022/06/04 13:23:22;;;;;;;;;;;20.00;42.10;;;;;;4961355;28;20383;-67
2022/06/04 13:25:51;;;;;;;;;;;20.00;42.10;;;;;;5034909;28;19978;-67
2022/06/04 13:28:27;;;;;;;;;;;20.00;42.60;;;;;;4953716;28;19926;-66
2022/06/04 13:30:53;;;;;;;;;;;20.00;42.00;;;;;;4963547;28;19937;-66
2022/06/04 13:33:20;;;;;;;;;;;20.00;42.10;;;;;;4973113;28;19930;-67
2022/06/04 13:35:47;;;;;;;;;;;20.00;42.10;;;;;;4962911;28;19970;-66
2022/06/04 13:38:18;;;;;;;;;;;20.00;42.20;;;;;;4958255;28;19927;-66
2022/06/04 13:40:45;;;;;;;;;;;20.10;42.30;;;;;;5043572;28;20034;-66
2022/06/04 13:43:12;;;;;;;;;;;20.10;42.20;;;;;;4970147;28;20209;-66
2022/06/04 13:45:40;;;;;;;;;;;20.10;42.30;;;;;;4990869;28;19980;-66
2022/06/04 13:48:19;;;;;;;;;;;20.00;42.10;;;;;;4983920;28;19934;-66
2022/06/04 13:50:47;;;;;;;;;;;20.10;42.20;;;;;;4965137;28;20414;-66
2022/06/04 13:53:16;;;;;;;;;;;20.10;42.20;;;;;;4956073;28;19926;-67
2022/06/04 13:55:45;;;;;;;;;;;20.10;42.10;;;;;;4975851;28;19976;-66
2022/06/04 13:58:13;;;;;;;;;;;20.10;42.00;;;;;;4972711;28;19927;-66
2022/06/04 14:00:43;;;;;;;;;;;20.10;42.00;;;;;;4975881;28;19926;-67
2022/06/04 14:03:11;;;;;;;;;;;20.10;42.00;;;;;;5015864;28;19952;-66
2022/06/04 14:05:44;;;;;;;;;;;20.10;42.00;;;;;;4971676;28;20295;-66
2022/06/04 14:08:11;;;;;;;;;;;20.10;41.70;;;;;;4974298;28;20021;-66
2022/06/04 14:10:38;;;;;;;;;;;20.10;41.60;;;;;;5033070;28;19932;-66
2022/06/04 14:13:12;;;;;;;;;;;20.10;41.60;;;;;;4979532;28;19926;-66
2022/06/04 14:15:49;;;;;;;;;;;20.10;41.70;;;;;;4971843;28;19970;-66
2022/06/04 14:18:22;;;;;;;;;;;20.10;41.60;;;;;;4968214;28;19937;-66
2022/06/04 14:20:51;;;;;;;;;;;20.10;42.20;;;;;;4962535;28;19927;-66
2022/06/04 14:23:22;;;;;;;;;;;20.10;41.50;;;;;;4962033;28;20021;-66
2022/06/04 14:25:51;;;;;;;;;;;20.10;41.40;;;;;;4980766;28;19934;-66
2022/06/04 14:28:21;;;;;;;;;;;20.10;41.50;;;;;;4969366;28;19926;-66
2022/06/04 14:30:50;;;;;;;;;;;20.10;41.40;;;;;;4980922;28;20045;-66
2022/06/04 14:33:17;;;;;;;;;;;20.10;41.50;;;;;;4961822;28;19957;-66
2022/06/04 14:35:45;;;;;;;;;;;20.10;41.40;;;;;;4992158;28;19981;-66
2022/06/04 14:38:14;;;;;;;;;;;20.10;41.10;;;;;;4965413;28;19940;-66
2022/06/04 14:40:43;;;;;;;;;;;20.10;40.90;;;;;;4951280;28;19933;-66